Santa Fe, NM

1:52 AM MDT on September 17, 2014 (GMT -0600)
Casa Solana | Change Station
CLOSE
Current Station
Personal Weather Station
Location: Santa Fe, NM
Elevation: 6930 ft
Nearby Weather Stations

Elev 6930 ft 35.69 °N, 105.96 °W | Updated 2 minutes ago

Partly Cloudy
Partly Cloudy
56.4 °F
Feels Like 56.4 °F
N
0.0
Wind Variable Wind from SSW
Gusts 0.0 mph

Today
High -- | Low -- °F
--% Chance of Precip.
Yesterday
High -- | Low -- °F
Precip. -- in
6:48 AM 7:07 PM
Last Quarter, 38% visible
Pressure 30.01 in
Visibility 10.0 miles
Clouds Clear
Dew Point 52 °F
Humidity 86%
Rainfall 0.00 in
Snow Depth Not available.
UV 0 out of 12
Pollen 5.90 out of 12
Air Quality Not available.
Flu Activity Not available.
METAR KSAF 170653Z AUTO 24004KT 10SM CLR 14/11 A3026 RMK AO2 SLP160 T01440111 402500139

More Conditions Fewer Conditions

Pressure 30.01 in
Visibility 10.0 miles
Clouds Clear
Dew Point 52 °F
Humidity 86%
Rainfall 0.00 in
Snow Depth Not available.
UV 0 out of 12
Pollen 5.90 out of 12
Air Quality Not available.
Flu Activity Not available.
METAR KSAF 170653Z AUTO 24004KT 10SM CLR 14/11 A3026 RMK AO2 SLP160 T01440111 402500139

More Conditions Fewer Conditions

10-Day Weather Forecast

Almanac

Astronomy

Sep. 17, 2014 Rise Set
Actual Time 6:48 AM MDT 7:07 PM MDT
Civil Twilight 6:22 AM MDT 7:33 PM MDT
Nautical Twilight 5:52 AM MDT 8:03 PM MDT
Astronomical Twilight 5:22 AM MDT 8:33 PM MDT
Moon 12:58 AM MDT 3:11 PM MDT
Length of Visible Light 13h 10m
Length of Day
12h 19m
Tomorrow will be 2m 14s shorter.
Last Quarter, 38% of the Moon is Illuminated
Today
Last Quarter
Sep 24
New
Oct 1
First Quarter
Oct 8
Full
Oct 15
Last Quarter

Today's Extremes

State Highs State Lows

Community

WunderPhotos

Upload Photos

1,753,976 photos uploaded!

Nearby

Snow Depth

Station Depth Elevation
Chamita 0 in 8400 ft
Bateman 0 in 9300 ft
Gallegos Peak 1 in 9800 ft
Hopewell 0 in 10000 ft
Sierra Blanca 1 in 10280 ft

Earthquake Activity

City Distance Mag. Time & Date
No recent earthquake activity has been reported nearby.
Minimum magnitude displayed is 2.5.

Coastal Water Temperatures

Place Temperature
No Stations Reporting

Nearby Weather Stations